createdAt,value
2019-03-29T00:00:14.713Z,4.40
2019-03-29T00:02:43.099Z,4.78
2019-03-29T00:05:11.610Z,5.00
2019-03-29T00:07:41.833Z,4.22
2019-03-29T00:10:09.856Z,5.03
2019-03-29T00:12:38.141Z,4.40
2019-03-29T00:15:07.363Z,4.65
2019-03-29T00:17:36.408Z,4.08
2019-03-29T00:20:07.550Z,5.10
2019-03-29T00:22:35.789Z,4.40
2019-03-29T00:25:04.069Z,4.67
2019-03-29T00:27:32.322Z,4.70
2019-03-29T00:30:00.709Z,4.10
2019-03-29T00:32:29.112Z,5.15
2019-03-29T00:34:57.401Z,4.25
2019-03-29T00:37:25.648Z,4.75
2019-03-29T00:39:53.908Z,4.40
2019-03-29T00:42:22.172Z,4.30
2019-03-29T00:44:50.438Z,4.92
2019-03-29T00:47:18.700Z,4.42
2019-03-29T00:49:47.116Z,5.10
2019-03-29T00:52:16.818Z,4.35
2019-03-29T00:54:45.400Z,4.70
2019-03-29T00:57:13.683Z,4.37
2019-03-29T00:59:41.936Z,4.47
2019-03-29T01:02:10.548Z,4.30
2019-03-29T01:04:38.791Z,3.98
2019-03-29T01:07:07.145Z,4.37
2019-03-29T01:09:35.455Z,4.03
2019-03-29T01:12:03.725Z,4.20
2019-03-29T01:14:31.995Z,4.67
2019-03-29T01:17:00.252Z,4.17
2019-03-29T01:19:29.216Z,4.45
2019-03-29T01:21:58.147Z,4.30
2019-03-29T01:24:26.450Z,4.12
2019-03-29T01:26:54.716Z,4.33
2019-03-29T01:29:22.965Z,4.50
2019-03-29T01:31:51.257Z,3.87
2019-03-29T01:34:20.492Z,4.35
2019-03-29T01:36:48.781Z,4.08
2019-03-29T01:39:17.238Z,3.92
2019-03-29T01:41:45.571Z,4.55
2019-03-29T01:44:13.838Z,4.65
2019-03-29T01:46:42.100Z,4.10
2019-03-29T01:49:10.327Z,4.35
2019-03-29T01:51:38.693Z,4.00
2019-03-29T01:54:06.967Z,3.85
2019-03-29T01:56:35.224Z,4.35
2019-03-29T01:59:03.536Z,5.12
2019-03-29T02:01:31.769Z,4.45
2019-03-29T02:04:00.297Z,4.78
2019-03-29T02:06:28.765Z,4.55
2019-03-29T02:08:57.018Z,4.40
2019-03-29T02:11:25.292Z,4.37
2019-03-29T02:13:53.549Z,5.05
2019-03-29T02:16:22.439Z,4.87
2019-03-29T02:18:50.714Z,4.78
2019-03-29T02:21:19.040Z,4.83
2019-03-29T02:23:47.320Z,4.47
2019-03-29T02:26:15.607Z,4.53
2019-03-29T02:28:44.846Z,3.98
2019-03-29T02:31:13.307Z,4.45
2019-03-29T02:33:41.631Z,4.47
2019-03-29T02:36:09.895Z,4.22
2019-03-29T02:38:54.137Z,4.92
2019-03-29T02:41:08.179Z,5.05
2019-03-29T02:43:36.542Z,4.53
2019-03-29T02:46:05.985Z,4.08
2019-03-29T02:48:34.237Z,4.20
2019-03-29T02:51:04.509Z,3.98
2019-03-29T02:53:32.783Z,4.50
2019-03-29T02:56:01.037Z,5.12
2019-03-29T02:58:29.307Z,5.00
2019-03-29T03:00:57.737Z,4.75
2019-03-29T03:03:26.046Z,4.92
2019-03-29T03:05:54.549Z,4.20
2019-03-29T03:08:22.899Z,5.67
2019-03-29T03:10:51.132Z,4.60
2019-03-29T03:13:19.407Z,4.80
2019-03-29T03:15:47.675Z,4.45
2019-03-29T03:18:15.943Z,4.58
2019-03-29T03:20:44.214Z,4.58
2019-03-29T03:23:12.485Z,4.10
2019-03-29T03:25:40.734Z,4.17
2019-03-29T03:28:09.012Z,4.65
2019-03-29T03:30:37.298Z,4.10
2019-03-29T03:33:05.627Z,4.58
2019-03-29T03:35:33.964Z,4.60
2019-03-29T03:38:02.254Z,4.45
2019-03-29T03:40:30.595Z,4.35
2019-03-29T03:42:58.853Z,4.55
2019-03-29T03:45:27.112Z,4.50
2019-03-29T03:47:55.389Z,4.72
2019-03-29T03:50:40.672Z,4.60
2019-03-29T03:53:09.692Z,4.65
2019-03-29T03:55:40.850Z,4.60
2019-03-29T03:58:09.969Z,5.15
2019-03-29T04:00:44.422Z,4.85
2019-03-29T04:03:12.684Z,4.92
2019-03-29T04:05:40.921Z,4.90
2019-03-29T04:08:09.156Z,5.25
2019-03-29T04:10:41.939Z,4.70
2019-03-29T04:13:07.393Z,4.72
2019-03-29T04:15:35.763Z,5.08
2019-03-29T04:18:04.091Z,4.78
2019-03-29T04:20:32.447Z,4.90
2019-03-29T04:23:00.683Z,5.10
2019-03-29T04:25:28.962Z,4.47
2019-03-29T04:27:57.209Z,5.80
2019-03-29T04:30:25.797Z,5.33
2019-03-29T04:32:54.037Z,5.67
2019-03-29T04:35:22.291Z,5.35
2019-03-29T04:37:50.591Z,6.37
2019-03-29T04:40:18.833Z,5.30
2019-03-29T04:42:47.098Z,5.30
2019-03-29T04:45:15.372Z,5.35
2019-03-29T04:47:43.622Z,5.00
2019-03-29T04:50:12.380Z,6.12
2019-03-29T04:52:40.711Z,5.72
2019-03-29T04:55:08.993Z,5.72
2019-03-29T04:57:37.453Z,5.47
2019-03-29T05:00:06.658Z,5.92
2019-03-29T05:02:35.050Z,6.42
2019-03-29T05:05:04.480Z,5.80
2019-03-29T05:07:32.721Z,6.53
2019-03-29T05:10:00.988Z,6.03
2019-03-29T05:12:29.236Z,5.85
2019-03-29T05:14:57.640Z,6.20
2019-03-29T05:17:25.903Z,6.30
2019-03-29T05:19:54.204Z,6.33
2019-03-29T05:22:22.522Z,6.90
2019-03-29T05:24:50.808Z,6.67
2019-03-29T05:27:19.102Z,6.97
2019-03-29T05:29:47.352Z,6.72
2019-03-29T05:32:15.608Z,6.90
2019-03-29T05:34:44.025Z,7.03
2019-03-29T05:37:12.308Z,6.50
2019-03-29T05:39:40.734Z,6.90
2019-03-29T05:42:09.195Z,6.60
2019-03-29T05:44:40.623Z,6.37
2019-03-29T05:47:07.643Z,6.30
2019-03-29T05:49:35.863Z,6.65
2019-03-29T05:52:04.246Z,6.75
2019-03-29T05:54:32.588Z,6.03
2019-03-29T05:57:00.824Z,7.08
2019-03-29T05:59:29.206Z,6.35
2019-03-29T06:01:57.487Z,6.37
2019-03-29T06:04:25.840Z,6.12
2019-03-29T06:06:54.124Z,5.97
2019-03-29T06:09:22.529Z,6.80
2019-03-29T06:11:50.769Z,6.80
2019-03-29T06:14:19.085Z,6.85
2019-03-29T06:16:47.302Z,6.50
2019-03-29T06:19:15.630Z,6.70
2019-03-29T06:21:43.855Z,6.17
2019-03-29T06:24:12.079Z,6.30
2019-03-29T06:26:40.447Z,6.97
2019-03-29T06:29:08.703Z,7.30
2019-03-29T06:31:36.983Z,6.60
2019-03-29T06:34:05.257Z,6.17
2019-03-29T06:36:33.535Z,6.83
2019-03-29T06:39:01.937Z,7.47
2019-03-29T06:41:30.201Z,8.80
2019-03-29T06:43:58.475Z,8.83
2019-03-29T06:46:26.807Z,8.53
2019-03-29T06:48:55.114Z,9.70
2019-03-29T06:51:23.346Z,9.00
2019-03-29T06:53:52.687Z,9.18
2019-03-29T06:56:21.273Z,9.93
2019-03-29T06:58:49.496Z,9.20
2019-03-29T07:01:17.730Z,10.00
2019-03-29T07:03:45.939Z,9.28
2019-03-29T07:06:14.176Z,11.12
2019-03-29T07:08:42.432Z,9.83
2019-03-29T07:11:17.329Z,10.20
2019-03-29T07:13:40.642Z,9.90
2019-03-29T07:16:08.900Z,9.93
2019-03-29T07:18:37.117Z,11.25
2019-03-29T07:21:05.342Z,11.10
2019-03-29T07:23:33.653Z,19.62
2019-03-29T07:26:01.886Z,21.75
2019-03-29T07:28:30.126Z,26.73
2019-03-29T07:30:58.367Z,23.05
2019-03-29T07:33:26.742Z,26.65
2019-03-29T07:35:55.132Z,26.37
2019-03-29T07:38:23.395Z,25.88
2019-03-29T07:40:51.772Z,27.77
2019-03-29T07:43:20.099Z,26.20
2019-03-29T07:45:48.331Z,25.65
2019-03-29T07:48:16.556Z,28.00
2019-03-29T07:50:44.789Z,24.75
2019-03-29T07:53:13.028Z,24.90
2019-03-29T07:55:41.331Z,23.70
2019-03-29T07:58:09.575Z,22.70
2019-03-29T08:00:37.843Z,27.22
2019-03-29T08:03:06.087Z,23.62
2019-03-29T08:05:35.454Z,25.17
2019-03-29T08:08:03.954Z,24.57
2019-03-29T08:10:32.334Z,25.77
2019-03-29T08:13:00.739Z,24.87
2019-03-29T08:15:28.969Z,22.93
2019-03-29T08:18:01.136Z,25.35
2019-03-29T08:20:44.527Z,24.15
2019-03-29T08:22:57.595Z,23.32
2019-03-29T08:25:25.832Z,23.15
2019-03-29T08:27:54.164Z,21.77
2019-03-29T08:30:22.387Z,21.68
2019-03-29T08:32:50.654Z,19.90
2019-03-29T08:35:19.031Z,23.42
2019-03-29T08:37:47.254Z,22.52
2019-03-29T08:40:15.523Z,23.32
2019-03-29T08:42:44.144Z,23.55
2019-03-29T08:45:12.445Z,21.75
2019-03-29T08:47:40.777Z,22.17
2019-03-29T08:50:09.305Z,23.10
2019-03-29T08:52:37.703Z,22.58
2019-03-29T08:55:06.609Z,21.75
2019-03-29T08:57:34.829Z,21.23
2019-03-29T09:00:05.068Z,22.40
2019-03-29T09:02:33.318Z,23.30
2019-03-29T09:05:01.919Z,22.35
2019-03-29T09:07:43.618Z,19.25
2019-03-29T09:10:00.411Z,21.55
2019-03-29T09:12:28.711Z,22.13
2019-03-29T09:14:56.939Z,20.95
2019-03-29T09:17:25.249Z,22.87
2019-03-29T09:19:53.524Z,22.37
2019-03-29T09:22:21.757Z,22.42
2019-03-29T09:24:50.925Z,21.90
2019-03-29T09:27:19.182Z,22.10
2019-03-29T09:29:47.450Z,22.65
2019-03-29T09:32:15.702Z,21.73
2019-03-29T09:34:43.946Z,22.52
2019-03-29T09:37:12.275Z,21.85
2019-03-29T09:39:40.677Z,25.08
2019-03-29T09:42:09.790Z,21.75
2019-03-29T09:44:38.350Z,18.62
2019-03-29T09:47:06.601Z,22.20
2019-03-29T09:49:34.853Z,22.40
2019-03-29T09:52:03.080Z,22.95
2019-03-29T09:54:31.394Z,23.45
2019-03-29T09:56:59.686Z,22.55
2019-03-29T09:59:27.909Z,23.07
2019-03-29T10:01:56.139Z,27.30
2019-03-29T10:04:24.360Z,24.63
2019-03-29T10:06:52.694Z,24.27
2019-03-29T10:09:20.920Z,24.43
2019-03-29T10:11:49.188Z,25.02
2019-03-29T10:14:17.426Z,22.77
2019-03-29T10:16:45.839Z,26.30
2019-03-29T10:19:14.064Z,26.60
2019-03-29T10:21:42.312Z,27.05
2019-03-29T10:24:10.551Z,26.62
2019-03-29T10:26:38.811Z,27.37
2019-03-29T10:29:07.048Z,23.80
2019-03-29T10:31:35.290Z,28.12
2019-03-29T10:34:03.539Z,30.17
2019-03-29T10:36:31.787Z,25.80
2019-03-29T10:39:00.026Z,28.60
2019-03-29T10:41:28.264Z,27.13
2019-03-29T10:43:56.836Z,25.12
2019-03-29T10:46:25.072Z,28.42
2019-03-29T10:48:53.328Z,25.90
2019-03-29T10:51:21.683Z,25.10
2019-03-29T10:53:49.912Z,26.33
2019-03-29T10:56:18.157Z,27.15
2019-03-29T10:58:46.391Z,27.07
2019-03-29T11:01:14.627Z,26.05
2019-03-29T11:03:42.859Z,26.80
2019-03-29T11:06:11.154Z,27.22
2019-03-29T11:08:39.385Z,26.42
2019-03-29T11:11:07.701Z,27.85
2019-03-29T11:13:35.953Z,28.17
2019-03-29T11:16:04.180Z,28.10
2019-03-29T11:18:32.432Z,26.85
2019-03-29T11:21:00.751Z,32.00
2019-03-29T11:23:29.231Z,28.87
2019-03-29T11:25:57.454Z,27.17
2019-03-29T11:28:25.714Z,31.65
2019-03-29T11:30:53.957Z,28.25
2019-03-29T11:33:22.239Z,30.08
2019-03-29T11:35:50.629Z,27.25
2019-03-29T11:38:18.853Z,28.07
2019-03-29T11:40:47.483Z,28.75
2019-03-29T11:43:26.439Z,29.50
2019-03-29T11:45:45.879Z,33.25
2019-03-29T11:48:14.163Z,28.95
2019-03-29T11:50:42.423Z,30.82
2019-03-29T11:53:10.809Z,30.82
2019-03-29T11:55:39.044Z,30.97
2019-03-29T11:58:07.276Z,33.25
2019-03-29T12:00:36.421Z,30.68
2019-03-29T12:03:09.411Z,29.02
2019-03-29T12:05:37.524Z,31.07
2019-03-29T12:08:05.747Z,30.88
2019-03-29T12:10:34.282Z,33.33
2019-03-29T12:13:02.519Z,32.83
2019-03-29T12:15:30.801Z,29.18
2019-03-29T12:17:59.059Z,32.65
2019-03-29T12:20:27.299Z,35.30
2019-03-29T12:22:55.595Z,31.33
2019-03-29T12:25:23.824Z,32.25
2019-03-29T12:27:52.100Z,31.87
2019-03-29T12:30:31.407Z,34.10
2019-03-29T12:32:50.595Z,31.73
2019-03-29T12:35:18.831Z,33.45
2019-03-29T12:37:47.148Z,31.68
2019-03-29T12:40:15.360Z,32.20
2019-03-29T12:42:43.636Z,33.95
2019-03-29T12:45:11.861Z,33.85
2019-03-29T12:47:40.097Z,32.23
2019-03-29T12:50:08.327Z,35.17
2019-03-29T12:52:36.571Z,34.05
2019-03-29T12:55:05.571Z,36.68
2019-03-29T12:57:33.807Z,33.55
2019-03-29T13:00:02.033Z,37.50
2019-03-29T13:02:30.272Z,28.95
2019-03-29T13:04:58.483Z,34.65
2019-03-29T13:07:26.742Z,37.17
2019-03-29T13:09:55.011Z,38.73
2019-03-29T13:12:23.304Z,35.48
2019-03-29T13:14:51.539Z,32.45
2019-03-29T13:17:19.843Z,29.07
2019-03-29T13:19:48.089Z,31.42
2019-03-29T13:22:16.596Z,35.13
2019-03-29T13:24:44.854Z,33.53
2019-03-29T13:27:13.143Z,36.77
2019-03-29T13:29:41.460Z,35.17
2019-03-29T13:32:09.703Z,39.33
2019-03-29T13:34:37.936Z,32.75
2019-03-29T13:37:06.382Z,34.85
2019-03-29T13:39:34.743Z,36.85
2019-03-29T13:42:03.003Z,32.75
2019-03-29T13:44:31.224Z,34.20
2019-03-29T13:46:59.458Z,32.38
2019-03-29T13:49:27.686Z,36.05
2019-03-29T13:51:55.928Z,34.78
2019-03-29T13:54:24.225Z,35.60
2019-03-29T13:56:52.424Z,35.58
2019-03-29T13:59:20.819Z,33.73
2019-03-29T14:01:49.041Z,36.20
2019-03-29T14:04:17.411Z,36.60
2019-03-29T14:06:45.662Z,37.05
2019-03-29T14:09:13.912Z,39.78
2019-03-29T14:11:42.122Z,39.60
2019-03-29T14:14:10.370Z,39.42
2019-03-29T14:16:38.792Z,36.50
2019-03-29T14:19:07.440Z,35.52
2019-03-29T14:21:35.638Z,40.63
2019-03-29T14:24:03.871Z,38.88
2019-03-29T14:26:32.120Z,31.93
2019-03-29T14:29:00.382Z,37.38
2019-03-29T14:31:29.529Z,38.02
2019-03-29T14:33:57.731Z,38.25
2019-03-29T14:36:25.976Z,37.93
2019-03-29T14:38:54.206Z,35.98
2019-03-29T14:41:22.450Z,36.08
2019-03-29T14:43:50.698Z,34.70
2019-03-29T14:46:18.937Z,38.50
2019-03-29T14:48:47.156Z,40.23
2019-03-29T14:51:15.449Z,37.73
2019-03-29T14:53:43.805Z,31.75
2019-03-29T14:56:12.136Z,35.55
2019-03-29T14:58:40.371Z,36.65
2019-03-29T15:01:08.599Z,28.30
2019-03-29T15:03:37.015Z,30.02
2019-03-29T15:06:05.258Z,33.13
2019-03-29T15:08:33.555Z,36.85
2019-03-29T15:11:02.298Z,35.68
2019-03-29T15:13:31.067Z,35.98
2019-03-29T15:15:59.433Z,32.20
2019-03-29T15:18:27.689Z,26.42
2019-03-29T15:20:56.080Z,37.53
2019-03-29T15:23:24.363Z,35.20
2019-03-29T15:25:52.651Z,31.42
2019-03-29T15:28:21.312Z,32.55
2019-03-29T15:30:52.269Z,32.55
2019-03-29T15:33:19.552Z,36.90
2019-03-29T15:35:47.782Z,36.17
2019-03-29T15:38:16.135Z,35.68
2019-03-29T15:40:44.907Z,37.70
2019-03-29T15:43:13.352Z,36.70
2019-03-29T15:45:41.643Z,37.98
2019-03-29T15:48:09.983Z,35.20
2019-03-29T15:50:38.236Z,35.15
2019-03-29T15:53:06.481Z,37.48
2019-03-29T15:55:34.707Z,39.18
2019-03-29T15:58:03.062Z,34.38
2019-03-29T16:00:31.355Z,33.78
2019-03-29T16:02:59.625Z,35.92
2019-03-29T16:05:27.876Z,37.30
2019-03-29T16:07:56.251Z,38.63
2019-03-29T16:10:24.504Z,35.98
2019-03-29T16:12:52.718Z,33.38
2019-03-29T16:15:33.468Z,36.38
2019-03-29T16:17:51.410Z,33.28
2019-03-29T16:20:19.722Z,36.77
2019-03-29T16:22:48.219Z,33.15
2019-03-29T16:25:16.518Z,35.95
2019-03-29T16:27:44.801Z,39.88
2019-03-29T16:30:13.272Z,36.63
2019-03-29T16:32:41.504Z,35.43
2019-03-29T16:35:09.781Z,37.23
2019-03-29T16:37:38.014Z,35.35
2019-03-29T16:40:06.879Z,35.73
2019-03-29T16:42:35.406Z,36.20
2019-03-29T16:45:04.854Z,31.42
2019-03-29T16:47:33.617Z,35.52
2019-03-29T16:50:01.829Z,36.13
2019-03-29T16:52:30.065Z,33.55
2019-03-29T16:55:11.884Z,36.53
2019-03-29T16:57:28.504Z,33.95
2019-03-29T16:59:56.785Z,34.95
2019-03-29T17:02:25.126Z,34.85
2019-03-29T17:04:53.394Z,34.85
2019-03-29T17:07:21.712Z,39.08
2019-03-29T17:09:49.999Z,36.48
2019-03-29T17:12:18.558Z,36.55
2019-03-29T17:14:46.806Z,35.38
2019-03-29T17:17:15.091Z,31.35
2019-03-29T17:19:43.414Z,32.08
2019-03-29T17:22:11.776Z,34.50
2019-03-29T17:24:40.022Z,38.98
2019-03-29T17:27:08.268Z,35.38
2019-03-29T17:29:36.522Z,34.53
2019-03-29T17:32:04.761Z,32.45
2019-03-29T17:34:33.071Z,38.23
2019-03-29T17:37:01.303Z,39.65
2019-03-29T17:39:29.680Z,34.58
2019-03-29T17:41:57.967Z,30.62
2019-03-29T17:44:27.615Z,31.90
2019-03-29T17:46:55.979Z,34.13
2019-03-29T17:49:24.284Z,32.15
2019-03-29T17:51:52.621Z,35.88
2019-03-29T17:54:21.692Z,38.63
2019-03-29T17:56:49.941Z,33.53
2019-03-29T17:59:18.537Z,31.33
2019-03-29T18:01:47.204Z,35.40
2019-03-29T18:04:15.500Z,34.08
2019-03-29T18:06:46.887Z,31.25
2019-03-29T18:09:13.765Z,31.75
2019-03-29T18:11:42.094Z,32.60
2019-03-29T18:14:10.314Z,36.63
2019-03-29T18:16:38.546Z,33.50
2019-03-29T18:19:06.831Z,31.97
2019-03-29T18:21:35.097Z,30.10
2019-03-29T18:24:03.582Z,29.65
2019-03-29T18:26:31.792Z,37.03
2019-03-29T18:29:00.219Z,33.60
2019-03-29T18:31:28.463Z,31.40
2019-03-29T18:33:56.779Z,34.98
2019-03-29T18:36:25.305Z,32.15
2019-03-29T18:38:53.520Z,36.20
2019-03-29T18:41:21.754Z,32.63
2019-03-29T18:43:50.052Z,34.00
2019-03-29T18:46:18.456Z,34.25
2019-03-29T18:48:46.705Z,37.63
2019-03-29T18:51:14.928Z,31.93
2019-03-29T18:53:43.192Z,35.48
2019-03-29T18:56:11.478Z,33.70
2019-03-29T18:58:39.910Z,34.33
2019-03-29T19:01:08.246Z,30.52
2019-03-29T19:03:36.519Z,33.50
2019-03-29T19:06:04.768Z,29.77
2019-03-29T19:08:33.078Z,31.30
2019-03-29T19:11:01.323Z,30.50
2019-03-29T19:13:29.601Z,31.25
2019-03-29T19:15:57.948Z,32.73
2019-03-29T19:18:26.247Z,35.25
2019-03-29T19:20:54.518Z,32.13
2019-03-29T19:23:22.743Z,33.75
2019-03-29T19:25:51.030Z,35.52
2019-03-29T19:28:19.425Z,32.58
2019-03-29T19:30:47.718Z,36.55
2019-03-29T19:33:16.082Z,35.03
2019-03-29T19:35:44.320Z,32.60
2019-03-29T19:38:12.648Z,35.35
2019-03-29T19:40:40.943Z,36.03
2019-03-29T19:43:09.166Z,31.62
2019-03-29T19:45:37.397Z,31.30
2019-03-29T19:48:05.725Z,31.40
2019-03-29T19:50:34.027Z,34.65
2019-03-29T19:53:02.372Z,33.83
2019-03-29T19:55:30.731Z,32.08
2019-03-29T19:57:59.099Z,32.05
2019-03-29T20:00:37.777Z,36.33
2019-03-29T20:03:06.040Z,34.50
2019-03-29T20:05:34.327Z,35.58
2019-03-29T20:08:02.560Z,34.48
2019-03-29T20:10:30.880Z,33.73
2019-03-29T20:12:59.152Z,34.88
2019-03-29T20:15:27.380Z,34.78
2019-03-29T20:17:55.711Z,32.95
2019-03-29T20:20:25.373Z,35.48
2019-03-29T20:22:54.926Z,37.38
2019-03-29T20:25:23.480Z,38.15
2019-03-29T20:27:51.699Z,34.45
2019-03-29T20:30:19.973Z,33.48
2019-03-29T20:32:48.351Z,33.67
2019-03-29T20:35:16.710Z,35.48
2019-03-29T20:37:44.954Z,34.88
2019-03-29T20:40:13.175Z,35.70
2019-03-29T20:42:41.540Z,36.17
2019-03-29T20:45:09.806Z,31.75
2019-03-29T20:47:42.445Z,36.53
2019-03-29T20:50:07.996Z,34.50
2019-03-29T20:52:36.248Z,41.53
2019-03-29T20:55:06.668Z,35.50
2019-03-29T20:57:35.093Z,34.13
2019-03-29T21:00:07.611Z,35.60
2019-03-29T21:02:35.855Z,36.68
2019-03-29T21:05:05.754Z,36.73
2019-03-29T21:07:33.976Z,37.90
2019-03-29T21:10:02.226Z,38.05
2019-03-29T21:12:30.459Z,32.73
2019-03-29T21:14:58.677Z,33.48
2019-03-29T21:17:26.918Z,34.80
2019-03-29T21:19:55.167Z,34.58
2019-03-29T21:22:23.402Z,36.38
2019-03-29T21:24:51.689Z,36.93
2019-03-29T21:27:19.984Z,41.58
2019-03-29T21:29:48.486Z,38.15
2019-03-29T21:32:16.776Z,38.38
2019-03-29T21:34:45.035Z,38.55
2019-03-29T21:37:13.265Z,35.60
2019-03-29T21:39:41.521Z,36.70
2019-03-29T21:42:09.947Z,38.28
2019-03-29T21:44:38.264Z,38.70
2019-03-29T21:47:06.496Z,38.25
2019-03-29T21:49:34.727Z,38.83
2019-03-29T21:52:02.951Z,40.50
2019-03-29T21:54:31.212Z,41.98
2019-03-29T21:56:59.436Z,41.23
2019-03-29T21:59:27.719Z,39.38
2019-03-29T22:01:55.935Z,42.95
2019-03-29T22:04:24.184Z,38.17
2019-03-29T22:06:53.313Z,40.03
2019-03-29T22:09:21.523Z,43.78
2019-03-29T22:11:49.884Z,42.08
2019-03-29T22:14:18.172Z,39.20
2019-03-29T22:16:46.395Z,41.02
2019-03-29T22:19:14.896Z,43.78
2019-03-29T22:21:43.127Z,48.63
